createdAt,value
2018-03-22T00:01:06.316Z,2.40
2018-03-22T00:03:33.731Z,2.95
2018-03-22T00:06:01.158Z,2.45
2018-03-22T00:08:28.600Z,2.20
2018-03-22T00:10:56.031Z,2.40
2018-03-22T00:13:23.424Z,6.05
2018-03-22T00:15:50.846Z,4.47
2018-03-22T00:18:18.282Z,2.53
2018-03-22T00:20:45.705Z,2.97
2018-03-22T00:23:13.184Z,1.85
2018-03-22T00:25:40.609Z,2.20
2018-03-22T00:28:08.199Z,2.65
2018-03-22T00:30:35.652Z,1.80
2018-03-22T00:33:03.097Z,2.10
2018-03-22T00:35:30.526Z,2.53
2018-03-22T00:37:59.092Z,2.20
2018-03-22T00:40:26.729Z,1.80
2018-03-22T00:42:54.516Z,2.60
2018-03-22T00:45:21.999Z,2.20
2018-03-22T00:47:49.800Z,2.50
2018-03-22T00:50:17.309Z,1.62
2018-03-22T00:52:44.828Z,2.42
2018-03-22T00:55:13.048Z,1.85
2018-03-22T00:57:40.508Z,2.53
2018-03-22T01:00:07.927Z,2.22
2018-03-22T01:02:35.316Z,2.03
2018-03-22T01:05:02.775Z,1.87
2018-03-22T01:07:30.405Z,1.75
2018-03-22T01:09:58.229Z,2.10
2018-03-22T01:12:25.860Z,3.03
2018-03-22T01:14:53.458Z,2.97
2018-03-22T01:17:20.881Z,2.53
2018-03-22T01:19:48.868Z,2.15
2018-03-22T01:22:16.327Z,1.95
2018-03-22T01:24:44.058Z,2.33
2018-03-22T01:27:11.989Z,2.50
2018-03-22T01:29:39.405Z,1.80
2018-03-22T01:32:06.829Z,2.05
2018-03-22T01:34:34.294Z,1.62
2018-03-22T01:37:02.000Z,2.55
2018-03-22T01:39:29.455Z,2.47
2018-03-22T01:41:56.932Z,2.95
2018-03-22T01:44:24.336Z,2.50
2018-03-22T01:46:51.728Z,1.75
2018-03-22T01:49:19.196Z,2.10
2018-03-22T01:51:46.901Z,2.85
2018-03-22T01:54:14.402Z,2.05
2018-03-22T01:56:42.590Z,2.03
2018-03-22T01:59:10.750Z,3.40
2018-03-22T02:01:38.170Z,2.10
2018-03-22T02:04:05.552Z,2.05
2018-03-22T02:06:32.992Z,1.33
2018-03-22T02:09:00.695Z,2.25
2018-03-22T02:11:28.117Z,2.42
2018-03-22T02:13:55.575Z,2.25
2018-03-22T02:16:23.005Z,2.17
2018-03-22T02:18:50.467Z,2.17
2018-03-22T02:21:17.935Z,2.15
2018-03-22T02:23:45.406Z,2.50
2018-03-22T02:26:12.858Z,2.15
2018-03-22T02:28:40.285Z,2.22
2018-03-22T02:31:08.445Z,2.40
2018-03-22T02:33:35.841Z,2.00
2018-03-22T02:36:03.230Z,2.10
2018-03-22T02:38:30.629Z,3.37
2018-03-22T02:40:58.009Z,2.85
2018-03-22T02:43:25.418Z,2.75
2018-03-22T02:45:52.920Z,2.40
2018-03-22T02:48:20.347Z,2.83
2018-03-22T02:50:47.781Z,2.12
2018-03-22T02:53:15.173Z,2.35
2018-03-22T02:55:42.587Z,3.37
2018-03-22T02:58:09.982Z,2.40
2018-03-22T03:00:37.435Z,2.92
2018-03-22T03:03:04.828Z,2.58
2018-03-22T03:05:32.332Z,2.40
2018-03-22T03:07:59.742Z,2.42
2018-03-22T03:10:27.173Z,3.10
2018-03-22T03:12:54.628Z,2.95
2018-03-22T03:15:22.059Z,2.62
2018-03-22T03:17:49.451Z,3.00
2018-03-22T03:20:17.028Z,2.58
2018-03-22T03:22:44.709Z,2.50
2018-03-22T03:25:12.174Z,3.33
2018-03-22T03:27:40.031Z,3.37
2018-03-22T03:30:07.476Z,2.67
2018-03-22T03:32:34.899Z,3.03
2018-03-22T03:35:02.313Z,3.17
2018-03-22T03:37:29.774Z,3.90
2018-03-22T03:39:57.185Z,2.78
2018-03-22T03:42:24.621Z,3.10
2018-03-22T03:44:52.210Z,3.08
2018-03-22T03:47:19.714Z,2.08
2018-03-22T03:49:47.171Z,2.70
2018-03-22T03:52:14.744Z,2.83
2018-03-22T03:54:42.211Z,2.95
2018-03-22T03:57:09.886Z,2.90
2018-03-22T03:59:37.319Z,3.55
2018-03-22T04:02:04.737Z,3.50
2018-03-22T04:04:32.255Z,2.75
2018-03-22T04:06:59.711Z,3.90
2018-03-22T04:09:27.105Z,4.03
2018-03-22T04:11:55.275Z,3.10
2018-03-22T04:14:22.697Z,2.35
2018-03-22T04:16:50.117Z,3.40
2018-03-22T04:19:17.546Z,2.25
2018-03-22T04:21:45.025Z,2.87
2018-03-22T04:24:12.485Z,2.83
2018-03-22T04:26:39.925Z,3.15
2018-03-22T04:29:07.373Z,3.12
2018-03-22T04:31:34.793Z,3.72
2018-03-22T04:34:02.991Z,2.58
2018-03-22T04:36:30.413Z,3.28
2018-03-22T04:38:57.885Z,2.22
2018-03-22T04:41:25.321Z,3.30
2018-03-22T04:43:52.746Z,4.20
2018-03-22T04:46:20.856Z,4.15
2018-03-22T04:48:48.725Z,4.68
2018-03-22T04:51:16.211Z,2.92
2018-03-22T04:53:43.619Z,2.92
2018-03-22T04:56:11.120Z,3.65
2018-03-22T04:58:38.517Z,2.65
2018-03-22T05:01:05.916Z,3.17
2018-03-22T05:03:33.341Z,3.40
2018-03-22T05:06:00.808Z,3.22
2018-03-22T05:08:28.376Z,2.70
2018-03-22T05:10:55.804Z,3.45
2018-03-22T05:13:23.493Z,2.25
2018-03-22T05:15:50.925Z,3.20
2018-03-22T05:18:18.424Z,2.95
2018-03-22T05:20:45.810Z,4.10
2018-03-22T05:23:13.274Z,3.37
2018-03-22T05:25:40.882Z,3.72
2018-03-22T05:28:08.334Z,4.68
2018-03-22T05:30:35.904Z,3.83
2018-03-22T05:33:03.334Z,2.83
2018-03-22T05:35:30.787Z,4.10
2018-03-22T05:37:58.188Z,4.50
2018-03-22T05:40:25.593Z,3.72
2018-03-22T05:42:53.049Z,2.35
2018-03-22T05:45:20.468Z,3.83
2018-03-22T05:47:47.931Z,3.78
2018-03-22T05:50:15.321Z,4.25
2018-03-22T05:52:42.711Z,4.20
2018-03-22T05:55:10.155Z,3.80
2018-03-22T05:57:37.570Z,4.15
2018-03-22T06:00:05.071Z,4.87
2018-03-22T06:02:32.522Z,4.10
2018-03-22T06:05:00.292Z,2.78
2018-03-22T06:07:27.705Z,4.07
2018-03-22T06:09:55.194Z,2.90
2018-03-22T06:12:22.588Z,4.07
2018-03-22T06:14:50.018Z,5.40
2018-03-22T06:17:17.749Z,5.18
2018-03-22T06:19:45.190Z,4.05
2018-03-22T06:22:12.574Z,4.82
2018-03-22T06:24:39.965Z,4.53
2018-03-22T06:27:07.418Z,4.60
2018-03-22T06:29:34.844Z,4.78
2018-03-22T06:32:02.290Z,4.75
2018-03-22T06:34:29.810Z,3.33
2018-03-22T06:36:57.347Z,4.85
2018-03-22T06:39:25.009Z,3.15
2018-03-22T06:41:52.441Z,3.75
2018-03-22T06:44:19.888Z,5.87
2018-03-22T06:46:47.476Z,4.62
2018-03-22T06:49:14.909Z,4.05
2018-03-22T06:51:43.648Z,4.37
2018-03-22T06:54:11.092Z,5.82
2018-03-22T06:56:38.543Z,3.97
2018-03-22T06:59:06.076Z,3.80
2018-03-22T07:01:33.441Z,5.87
2018-03-22T07:04:00.874Z,4.37
2018-03-22T07:06:28.295Z,5.07
2018-03-22T07:08:55.817Z,3.95
2018-03-22T07:11:23.207Z,4.00
2018-03-22T07:13:50.707Z,4.82
2018-03-22T07:16:18.242Z,6.15
2018-03-22T07:18:45.662Z,4.22
2018-03-22T07:21:14.321Z,4.70
2018-03-22T07:23:42.710Z,4.78
2018-03-22T07:26:10.178Z,4.87
2018-03-22T07:28:38.022Z,5.82
2018-03-22T07:31:05.525Z,5.05
2018-03-22T07:33:32.988Z,4.78
2018-03-22T07:36:00.456Z,6.22
2018-03-22T07:38:27.843Z,6.87
2018-03-22T07:40:55.250Z,4.78
2018-03-22T07:43:40.562Z,7.65
2018-03-22T07:46:08.086Z,5.65
2018-03-22T07:48:35.527Z,5.32
2018-03-22T07:51:03.010Z,5.35
2018-03-22T07:53:30.563Z,7.20
2018-03-22T07:55:57.960Z,6.43
2018-03-22T07:58:25.429Z,6.25
2018-03-22T08:00:52.858Z,4.95
2018-03-22T08:03:20.286Z,5.05
2018-03-22T08:05:47.767Z,4.85
2018-03-22T08:08:15.198Z,6.70
2018-03-22T08:10:42.628Z,6.78
2018-03-22T08:13:10.037Z,5.95
2018-03-22T08:15:37.542Z,5.72
2018-03-22T08:18:05.503Z,5.68
2018-03-22T08:20:32.991Z,4.43
2018-03-22T08:23:00.389Z,4.18
2018-03-22T08:25:27.864Z,6.25
2018-03-22T08:27:55.297Z,6.05
2018-03-22T08:30:22.722Z,5.60
2018-03-22T08:32:50.170Z,5.95
2018-03-22T08:35:17.609Z,6.35
2018-03-22T08:37:45.033Z,4.28
2018-03-22T08:40:12.443Z,4.80
2018-03-22T08:42:39.919Z,7.18
2018-03-22T08:45:07.380Z,9.02
2018-03-22T08:47:34.909Z,5.03
2018-03-22T08:50:02.381Z,6.43
2018-03-22T08:52:29.825Z,5.35
2018-03-22T08:54:57.275Z,5.62
2018-03-22T08:57:24.668Z,5.25
2018-03-22T08:59:52.233Z,6.28
2018-03-22T09:02:19.641Z,4.95
2018-03-22T09:04:47.209Z,5.47
2018-03-22T09:07:14.766Z,5.80
2018-03-22T09:09:42.230Z,5.40
2018-03-22T09:12:09.680Z,6.10
2018-03-22T09:14:37.146Z,6.07
2018-03-22T09:17:04.536Z,6.82
2018-03-22T09:19:31.943Z,5.15
2018-03-22T09:21:59.377Z,5.20
2018-03-22T09:24:26.914Z,4.45
2018-03-22T09:27:00.043Z,6.07
2018-03-22T09:29:27.666Z,6.85
2018-03-22T09:31:55.129Z,5.68
2018-03-22T09:34:22.745Z,5.70
2018-03-22T09:36:50.169Z,5.00
2018-03-22T09:39:17.646Z,7.10
2018-03-22T09:41:45.316Z,4.90
2018-03-22T09:44:12.786Z,4.43
2018-03-22T09:46:40.220Z,4.05
2018-03-22T09:49:07.886Z,4.60
2018-03-22T09:51:35.349Z,4.93
2018-03-22T09:54:02.851Z,4.78
2018-03-22T09:56:30.276Z,5.22
2018-03-22T09:58:57.718Z,6.50
2018-03-22T10:01:25.179Z,5.50
2018-03-22T10:03:52.572Z,5.12
2018-03-22T10:06:20.092Z,4.95
2018-03-22T10:08:47.525Z,6.12
2018-03-22T10:11:14.928Z,3.45
2018-03-22T10:13:43.289Z,4.65
2018-03-22T10:16:10.901Z,4.85
2018-03-22T10:18:38.386Z,4.12
2018-03-22T10:21:05.813Z,4.47
2018-03-22T10:23:33.233Z,4.00
2018-03-22T10:26:00.626Z,4.78
2018-03-22T10:28:28.089Z,5.10
2018-03-22T10:30:55.748Z,4.82
2018-03-22T10:33:23.221Z,4.25
2018-03-22T10:35:50.710Z,5.47
2018-03-22T10:38:18.825Z,4.78
2018-03-22T10:40:46.301Z,3.78
2018-03-22T10:43:13.793Z,4.40
2018-03-22T10:45:41.256Z,4.82
2018-03-22T10:48:08.681Z,3.67
2018-03-22T10:50:36.432Z,4.82
2018-03-22T10:53:03.904Z,2.85
2018-03-22T10:55:31.508Z,3.40
2018-03-22T10:57:59.067Z,4.60
2018-03-22T11:00:32.013Z,4.60
2018-03-22T11:03:05.103Z,4.47
2018-03-22T11:05:32.533Z,4.50
2018-03-22T11:08:00.023Z,3.33
2018-03-22T11:10:27.513Z,3.55
2018-03-22T11:12:55.149Z,3.62
2018-03-22T11:15:22.685Z,4.87
2018-03-22T11:17:50.172Z,4.00
2018-03-22T11:20:17.644Z,4.53
2018-03-22T11:22:45.048Z,5.18
2018-03-22T11:25:13.126Z,5.40
2018-03-22T11:27:40.590Z,4.40
2018-03-22T11:30:08.255Z,4.37
2018-03-22T11:32:35.673Z,4.25
2018-03-22T11:35:03.102Z,4.40
2018-03-22T11:37:30.642Z,4.05
2018-03-22T11:39:58.089Z,4.07
2018-03-22T11:42:25.644Z,4.57
2018-03-22T11:44:53.102Z,5.05
2018-03-22T11:47:20.570Z,5.12
2018-03-22T11:49:48.006Z,4.50
2018-03-22T11:52:15.517Z,4.45
2018-03-22T11:54:42.908Z,3.62
2018-03-22T11:57:10.427Z,4.05
2018-03-22T11:59:37.863Z,4.32
2018-03-22T12:02:05.284Z,3.90
2018-03-22T12:04:32.887Z,4.18
2018-03-22T12:07:00.355Z,3.05
2018-03-22T12:09:28.468Z,4.60
2018-03-22T12:11:55.886Z,3.53
2018-03-22T12:14:23.428Z,3.60
2018-03-22T12:16:50.970Z,4.40
2018-03-22T12:19:18.965Z,5.57
2018-03-22T12:21:46.458Z,3.17
2018-03-22T12:24:13.987Z,3.40
2018-03-22T12:26:41.635Z,4.75
2018-03-22T12:29:09.198Z,3.45
2018-03-22T12:31:36.685Z,4.65
2018-03-22T12:34:04.568Z,4.78
2018-03-22T12:36:32.005Z,6.70
2018-03-22T12:38:59.540Z,4.25
2018-03-22T12:41:27.745Z,4.87
2018-03-22T12:43:55.517Z,3.95
2018-03-22T12:46:22.947Z,4.60
2018-03-22T12:48:50.712Z,4.60
2018-03-22T12:51:18.217Z,4.65
2018-03-22T12:53:45.618Z,4.60
2018-03-22T12:56:13.080Z,5.45
2018-03-22T12:58:40.471Z,3.95
2018-03-22T13:01:08.441Z,4.18
2018-03-22T13:03:35.864Z,4.10
2018-03-22T13:06:03.328Z,4.75
2018-03-22T13:08:30.869Z,5.53
2018-03-22T13:10:58.356Z,4.62
2018-03-22T13:13:25.850Z,4.47
2018-03-22T13:15:53.354Z,4.03
2018-03-22T13:18:20.782Z,4.60
2018-03-22T13:20:48.176Z,3.80
2018-03-22T13:23:15.614Z,3.80
2018-03-22T13:25:43.363Z,4.03
2018-03-22T13:28:10.841Z,3.83
2018-03-22T13:30:38.427Z,3.42
2018-03-22T13:33:05.874Z,3.95
2018-03-22T13:35:33.271Z,3.95
2018-03-22T13:38:00.700Z,3.37
2018-03-22T13:40:28.131Z,3.22
2018-03-22T13:42:55.676Z,3.10
2018-03-22T13:45:23.156Z,2.87
2018-03-22T13:47:50.575Z,4.50
2018-03-22T13:50:18.593Z,6.18
2018-03-22T13:52:46.037Z,3.28
2018-03-22T13:55:13.509Z,3.95
2018-03-22T13:57:40.962Z,3.37
2018-03-22T14:00:08.434Z,4.57
2018-03-22T14:02:35.877Z,4.30
2018-03-22T14:05:03.406Z,4.55
2018-03-22T14:07:30.858Z,4.32
2018-03-22T14:09:58.320Z,3.78
2018-03-22T14:12:25.750Z,5.35
2018-03-22T14:14:53.224Z,3.40
2018-03-22T14:17:20.674Z,2.90
2018-03-22T14:19:48.362Z,3.65
2018-03-22T14:22:15.928Z,2.62
2018-03-22T14:24:43.356Z,3.40
2018-03-22T14:27:10.792Z,4.12
2018-03-22T14:29:38.719Z,5.07
2018-03-22T14:32:07.090Z,3.70
2018-03-22T14:34:34.650Z,2.90
2018-03-22T14:37:02.127Z,3.37
2018-03-22T14:39:29.591Z,2.45
2018-03-22T14:41:57.068Z,2.90
2018-03-22T14:44:24.613Z,2.37
2018-03-22T14:46:52.041Z,2.75
2018-03-22T14:49:19.468Z,3.25
2018-03-22T14:51:46.953Z,3.50
2018-03-22T14:54:14.365Z,3.58
2018-03-22T14:56:41.824Z,2.87
2018-03-22T14:59:09.438Z,3.15
2018-03-22T15:01:36.921Z,3.70
2018-03-22T15:04:04.367Z,3.28
2018-03-22T15:06:31.825Z,3.08
2018-03-22T15:08:59.252Z,2.85
2018-03-22T15:11:26.722Z,2.80
2018-03-22T15:13:54.208Z,3.42
2018-03-22T15:16:21.686Z,3.95
2018-03-22T15:18:49.387Z,2.67
2018-03-22T15:21:16.841Z,2.75
2018-03-22T15:23:44.328Z,2.35
2018-03-22T15:26:12.774Z,1.90
2018-03-22T15:28:40.243Z,3.50
2018-03-22T15:31:07.808Z,3.35
2018-03-22T15:33:35.364Z,2.40
2018-03-22T15:36:02.840Z,2.67
2018-03-22T15:38:30.257Z,3.47
2018-03-22T15:40:57.786Z,2.70
2018-03-22T15:43:25.284Z,2.35
2018-03-22T15:45:52.766Z,2.78
2018-03-22T15:48:20.806Z,2.80
2018-03-22T15:50:48.271Z,3.05
2018-03-22T15:53:15.679Z,2.97
2018-03-22T15:55:43.173Z,2.60
2018-03-22T15:58:10.719Z,2.87
2018-03-22T16:00:38.173Z,2.60
2018-03-22T16:03:05.604Z,2.85
2018-03-22T16:05:33.035Z,3.00
2018-03-22T16:08:01.496Z,3.10
2018-03-22T16:10:29.182Z,3.20
2018-03-22T16:12:56.651Z,3.05
2018-03-22T16:15:24.333Z,2.20
2018-03-22T16:17:51.850Z,2.42
2018-03-22T16:20:19.262Z,2.80
2018-03-22T16:22:46.659Z,2.42
2018-03-22T16:25:14.099Z,1.95
2018-03-22T16:27:42.165Z,3.58
2018-03-22T16:30:09.598Z,2.90
2018-03-22T16:32:37.034Z,3.47
2018-03-22T16:35:04.536Z,3.00
2018-03-22T16:37:32.038Z,4.03
2018-03-22T16:39:59.502Z,3.00
2018-03-22T16:42:26.937Z,2.92
2018-03-22T16:44:54.400Z,4.72
2018-03-22T16:47:21.842Z,3.92
2018-03-22T16:49:49.419Z,3.95
2018-03-22T16:52:17.028Z,3.85
2018-03-22T16:54:44.717Z,3.75
2018-03-22T16:57:12.265Z,4.10
2018-03-22T16:59:39.777Z,2.60
2018-03-22T17:02:07.152Z,3.80
2018-03-22T17:04:34.647Z,3.12
2018-03-22T17:07:02.179Z,4.90
2018-03-22T17:09:29.877Z,3.45
2018-03-22T17:11:57.369Z,3.40
2018-03-22T17:14:24.822Z,5.65
2018-03-22T17:16:52.241Z,3.87
2018-03-22T17:19:19.827Z,3.70
2018-03-22T17:21:47.338Z,4.00
2018-03-22T17:24:14.760Z,3.95
2018-03-22T17:26:42.190Z,4.72
2018-03-22T17:29:09.657Z,3.40
2018-03-22T17:31:37.086Z,4.35
2018-03-22T17:34:04.560Z,2.85
2018-03-22T17:36:32.005Z,4.22
2018-03-22T17:38:59.482Z,3.47
2018-03-22T17:41:27.018Z,4.40
2018-03-22T17:43:54.451Z,3.75
2018-03-22T17:46:21.863Z,3.05
2018-03-22T17:48:49.371Z,2.83
2018-03-22T17:51:16.798Z,4.25
2018-03-22T17:53:44.263Z,3.65
2018-03-22T17:56:11.801Z,3.37
2018-03-22T17:58:39.247Z,4.00
2018-03-22T18:01:06.631Z,3.00
2018-03-22T18:03:34.098Z,2.08
2018-03-22T18:06:01.617Z,4.30
2018-03-22T18:08:29.125Z,3.12
2018-03-22T18:10:56.588Z,3.22
2018-03-22T18:13:24.087Z,3.20
2018-03-22T18:15:51.636Z,2.67
2018-03-22T18:18:19.222Z,2.80
2018-03-22T18:20:46.760Z,2.65
2018-03-22T18:23:14.364Z,3.28
2018-03-22T18:25:41.970Z,3.83
2018-03-22T18:28:09.447Z,3.30
2018-03-22T18:30:36.928Z,2.50
2018-03-22T18:33:04.349Z,3.28
2018-03-22T18:35:31.817Z,3.72
2018-03-22T18:37:59.200Z,2.87
2018-03-22T18:40:27.027Z,3.35
2018-03-22T18:42:54.703Z,3.30
2018-03-22T18:45:22.217Z,3.60
2018-03-22T18:47:49.731Z,4.03
2018-03-22T18:50:17.230Z,3.20
2018-03-22T18:52:44.758Z,2.95
2018-03-22T18:55:12.358Z,2.97
2018-03-22T18:57:40.165Z,3.25
2018-03-22T19:00:07.564Z,3.95
2018-03-22T19:02:35.005Z,3.15
2018-03-22T19:05:02.598Z,3.70
2018-03-22T19:07:30.042Z,3.05
2018-03-22T19:09:57.481Z,2.90
2018-03-22T19:12:25.119Z,3.28
2018-03-22T19:14:53.276Z,3.35
2018-03-22T19:17:20.714Z,1.95
2018-03-22T19:19:48.302Z,2.15
2018-03-22T19:22:15.713Z,2.70
2018-03-22T19:24:43.219Z,2.80
2018-03-22T19:27:10.658Z,2.62
2018-03-22T19:29:38.109Z,3.20
2018-03-22T19:32:05.580Z,2.80
2018-03-22T19:34:32.972Z,2.45
2018-03-22T19:37:00.380Z,2.40
2018-03-22T19:39:27.818Z,2.60
2018-03-22T19:41:56.270Z,3.78
2018-03-22T19:44:23.683Z,2.42
2018-03-22T19:46:51.125Z,2.87
2018-03-22T19:49:18.554Z,3.58
2018-03-22T19:51:45.988Z,2.62
2018-03-22T19:54:13.405Z,3.80
2018-03-22T19:56:40.808Z,2.67
2018-03-22T19:59:08.237Z,3.87
2018-03-22T20:01:35.676Z,3.10
2018-03-22T20:04:03.102Z,3.10
2018-03-22T20:06:30.517Z,2.83
2018-03-22T20:08:58.170Z,3.22
2018-03-22T20:11:25.625Z,3.80
2018-03-22T20:13:53.988Z,2.60
2018-03-22T20:16:21.382Z,3.12
2018-03-22T20:18:48.901Z,3.15
2018-03-22T20:21:16.311Z,2.40
2018-03-22T20:23:43.793Z,3.78
2018-03-22T20:26:11.255Z,3.25
2018-03-22T20:28:38.616Z,4.82
2018-03-22T20:31:06.004Z,3.20
2018-03-22T20:33:33.482Z,4.65
2018-03-22T20:36:00.872Z,3.22
2018-03-22T20:38:28.326Z,3.12
2018-03-22T20:40:55.723Z,3.55
2018-03-22T20:43:23.189Z,2.25
2018-03-22T20:45:50.738Z,2.95
2018-03-22T20:48:18.174Z,4.07
2018-03-22T20:50:45.649Z,3.45
2018-03-22T20:53:13.128Z,3.45
2018-03-22T20:55:40.568Z,4.55
2018-03-22T20:58:08.045Z,4.40
2018-03-22T21:00:35.515Z,3.10
2018-03-22T21:03:02.908Z,2.22
2018-03-22T21:05:30.378Z,2.58
2018-03-22T21:07:57.867Z,3.12
2018-03-22T21:10:25.303Z,3.20
2018-03-22T21:12:52.775Z,2.87
2018-03-22T21:15:20.167Z,3.97
2018-03-22T21:17:47.587Z,4.28
2018-03-22T21:20:15.438Z,2.80
2018-03-22T21:22:43.068Z,2.90
2018-03-22T21:25:10.453Z,2.60
2018-03-22T21:27:38.056Z,2.37
2018-03-22T21:30:05.517Z,3.47
2018-03-22T21:32:33.077Z,3.83
2018-03-22T21:35:00.542Z,2.78
2018-03-22T21:37:28.011Z,3.85
2018-03-22T21:39:55.477Z,3.00
2018-03-22T21:42:22.930Z,3.67
2018-03-22T21:44:50.379Z,5.10
2018-03-22T21:47:29.521Z,3.17
2018-03-22T21:49:56.993Z,4.22
2018-03-22T21:52:36.266Z,4.37
2018-03-22T21:55:03.739Z,4.62
2018-03-22T21:57:31.162Z,3.50
2018-03-22T21:59:58.613Z,3.03
2018-03-22T22:02:26.718Z,3.67
2018-03-22T22:04:54.187Z,4.15
2018-03-22T22:07:21.671Z,5.70
2018-03-22T22:09:49.088Z,3.80
2018-03-22T22:12:16.524Z,4.15
2018-03-22T22:14:43.914Z,4.37
2018-03-22T22:17:11.542Z,5.93
2018-03-22T22:19:39.047Z,5.00
2018-03-22T22:22:06.500Z,4.47
2018-03-22T22:24:34.073Z,3.85
2018-03-22T22:27:01.842Z,4.68
2018-03-22T22:29:29.318Z,3.40
2018-03-22T22:31:56.792Z,4.50
2018-03-22T22:36:57.893Z,4.62
2018-03-22T22:39:25.322Z,4.60
2018-03-22T22:41:52.752Z,3.90
2018-03-22T22:44:20.140Z,6.22
2018-03-22T22:46:47.713Z,3.92
2018-03-22T22:49:15.167Z,5.45
2018-03-22T22:51:42.571Z,4.10
2018-03-22T22:54:10.048Z,3.53
2018-03-22T22:56:37.525Z,3.75
2018-03-22T22:59:05.845Z,3.45
2018-03-22T23:01:33.286Z,4.20
2018-03-22T23:04:00.719Z,3.80
2018-03-22T23:06:28.167Z,3.97
2018-03-22T23:08:55.713Z,4.05
2018-03-22T23:11:23.144Z,3.12
2018-03-22T23:13:50.565Z,4.47
2018-03-22T23:16:17.952Z,3.12
2018-03-22T23:18:45.447Z,4.45
2018-03-22T23:21:13.013Z,3.80
2018-03-22T23:23:40.567Z,4.62
2018-03-22T23:26:07.958Z,4.37
2018-03-22T23:28:35.462Z,4.40
2018-03-22T23:31:02.885Z,4.65
2018-03-22T23:33:30.363Z,3.90
2018-03-22T23:35:57.777Z,3.70
2018-03-22T23:38:25.219Z,2.95
2018-03-22T23:40:52.648Z,4.32
2018-03-22T23:43:20.068Z,4.87
2018-03-22T23:45:47.628Z,3.95
2018-03-22T23:48:15.041Z,4.32
2018-03-22T23:50:42.568Z,4.53
2018-03-22T23:53:09.989Z,4.15
2018-03-22T23:55:37.691Z,3.83
2018-03-22T23:58:05.079Z,5.03
